| time (UTC) | temp F | wind direction | speed MPH | gust MPH | rain 1hr in | rain 24hr in | rain mn in | humidity % | barometer mb |
| 20260502163051 | 60 | 317 | 22.0 | 0.0 | 0.00 | 0.00 | 0.00 | 50 | 1007.9 |
| 20260502161611 | 60 | 337 | 21.0 | 0.0 | 0.00 | 0.00 | 0.00 | 46 | 1007.6 |
| 20260502160105 | 60 | 320 | 16.0 | 0.0 | 0.00 | 0.00 | 0.00 | 46 | 1007.3 |
| 20260502151539 | 59 | 261 | 8.0 | 0.0 | 0.00 | 0.00 | 0.00 | 51 | 1007.0 |
| 20260502123005 | 47 | 241 | 3.0 | 0.0 | 0.00 | 0.00 | 0.00 | 57 | 1007.8 |
| 20260502121502 | 47 | 218 | 3.0 | 0.0 | 0.00 | 0.00 | 0.00 | 56 | 1007.8 |
| 20260502120137 | 46 | 242 | 3.0 | 0.0 | 0.00 | 0.00 | 0.00 | 56 | 1007.6 |
| 20260502114559 | 46 | 225 | 3.0 | 0.0 | 0.00 | 0.00 | 0.00 | 57 | 1007.8 |
| 20260502113057 | 46 | 240 | 2.0 | 0.0 | 0.00 | 0.00 | 0.00 | 57 | 1008.0 |
| 20260502111557 | 46 | 206 | 3.0 | 0.0 | 0.00 | 0.00 | 0.00 | 56 | 1008.0 |
| 20260502110057 | 46 | 175 | 3.0 | 0.0 | 0.00 | 0.00 | 0.00 | 56 | 1008.0 |
| 20260502104556 | 46 | 208 | 2.0 | 0.0 | 0.00 | 0.00 | 0.00 | 56 | 1008.3 |
| 20260502103053 | 47 | 205 | 2.0 | 0.0 | 0.00 | 0.00 | 0.00 | 53 | 1008.5 |
| 20260502101559 | 49 | 236 | 4.0 | 0.0 | 0.00 | 0.00 | 0.00 | 49 | 1008.7 |
| 20260502071522 | 42 | 185 | 2.0 | 0.0 | 0.00 | 0.00 | 0.00 | 62 | 1011.0 |
| 20260502070022 | 42 | 186 | 2.0 | 0.0 | 0.00 | 0.00 | 0.00 | 61 | 1011.2 |
| 20260502064517 | 43 | 187 | 2.0 | 0.0 | 0.00 | 0.00 | 0.00 | 59 | 1011.1 |
| 20260502063013 | 43 | 188 | 3.0 | 0.0 | 0.00 | 0.00 | 0.00 | 58 | 1011.3 |
| 20260502061512 | 44 | 193 | 3.0 | 0.0 | 0.00 | 0.00 | 0.00 | 58 | 1011.4 |
| 20260502060008 | 43 | 184 | 3.0 | 0.0 | 0.00 | 0.00 | 0.00 | 58 | 1011.5 |
| 20260502054517 | 41 | 218 | 3.0 | 0.0 | 0.00 | 0.00 | 0.00 | 62 | 1011.4 |
| 20260502053006 | 40 | 256 | 2.0 | 0.0 | 0.00 | 0.00 | 0.00 | 63 | 1011.4 |
| 20260502051504 | 40 | 256 | 2.0 | 0.0 | 0.00 | 0.00 | 0.00 | 63 | 1011.6 |
| 20260502050015 | 40 | 257 | 2.0 | 0.0 | 0.00 | 0.00 | 0.00 | 60 | 1012.0 |
| 20260502044502 | 43 | 258 | 3.0 | 0.0 | 0.00 | 0.00 | 0.00 | 56 | 1012.3 |
| 20260502043119 | 42 | 260 | 2.0 | 0.0 | 0.00 | 0.00 | 0.00 | 56 | 1012.4 |
| 20260502041559 | 43 | 260 | 2.0 | 0.0 | 0.00 | 0.00 | 0.00 | 55 | 1012.6 |
| 20260502040106 | 42 | 260 | 2.0 | 0.0 | 0.00 | 0.00 | 0.00 | 56 | 1012.8 |
| 20260502034604 | 43 | 260 | 0.0 | 0.0 | 0.00 | 0.00 | 0.00 | 53 | 1012.9 |
| 20260502033103 | 45 | 260 | 0.0 | 0.0 | 0.00 | 0.00 | 0.00 | 52 | 1013.1 |
| 20260502031555 | 46 | 260 | 0.0 | 0.0 | 0.00 | 0.00 | 0.00 | 50 | 1013.1 |
| 20260502030055 | 46 | 260 | 1.0 | 0.0 | 0.00 | 0.00 | 0.00 | 49 | 1013.2 |
| 20260502024609 | 48 | 260 | 1.0 | 0.0 | 0.00 | 0.00 | 0.00 | 47 | 1013.1 |
| 20260502023054 | 49 | 260 | 1.0 | 0.0 | 0.00 | 0.00 | 0.00 | 44 | 1013.1 |
| 20260502021600 | 52 | 260 | 1.0 | 0.0 | 0.00 | 0.00 | 0.00 | 42 | 1013.1 |
| 20260502020055 | 55 | 260 | 1.0 | 0.0 | 0.00 | 0.00 | 0.00 | 37 | 1013.0 |
| 20260502014552 | 60 | 260 | 1.0 | 0.0 | 0.00 | 0.00 | 0.00 | 32 | 1013.0 |
| 20260502013051 | 63 | 260 | 0.0 | 0.0 | 0.00 | 0.00 | 0.00 | 29 | 1013.1 |
| 20260502011550 | 65 | 260 | 1.0 | 0.0 | 0.00 | 0.00 | 0.00 | 28 | 1013.1 |
| 20260502010055 | 66 | 263 | 2.0 | 0.0 | 0.00 | 0.00 | 0.00 | 27 | 1013.2 |
| 20260502004600 | 66 | 269 | 4.0 | 0.0 | 0.00 | 0.00 | 0.00 | 26 | 1013.3 |
| 20260502003046 | 67 | 258 | 4.0 | 0.0 | 0.00 | 0.00 | 0.00 | 26 | 1013.6 |
| 20260502001546 | 67 | 277 | 4.0 | 0.0 | 0.00 | 0.00 | 0.00 | 25 | 1013.6 |
| 20260502000045 | 68 | 250 | 4.0 | 0.0 | 0.00 | 0.00 | 0.00 | 25 | 1013.6 |
| 20260501234543 | 68 | 270 | 4.0 | 0.0 | 0.00 | 0.00 | 0.00 | 24 | 1013.8 |
| 20260501233046 | 68 | 232 | 6.0 | 0.0 | 0.00 | 0.00 | 0.00 | 24 | 1014.0 |
| 20260501231543 | 68 | 255 | 5.0 | 0.0 | 0.00 | 0.00 | 0.00 | 25 | 1014.1 |
| 20260501230040 | 68 | 262 | 5.0 | 0.0 | 0.00 | 0.00 | 0.00 | 25 | 1014.3 |
| 20260501224546 | 68 | 214 | 5.0 | 0.0 | 0.00 | 0.00 | 0.00 | 25 | 1014.4 |
| 20260501223037 | 68 | 277 | 5.0 | 0.0 | 0.00 | 0.00 | 0.00 | 27 | 1014.5 |
| 20260501221535 | 67 | 186 | 5.0 | 0.0 | 0.00 | 0.00 | 0.00 | 26 | 1014.6 |
| 20260501220037 | 67 | 277 | 4.0 | 0.0 | 0.00 | 0.00 | 0.00 | 27 | 1014.8 |
| 20260501214531 | 67 | 275 | 4.0 | 0.0 | 0.00 | 0.00 | 0.00 | 27 | 1015.1 |
| 20260501213044 | 67 | 251 | 6.0 | 0.0 | 0.00 | 0.00 | 0.00 | 26 | 1015.4 |
| 20260501211528 | 66 | 309 | 6.0 | 0.0 | 0.00 | 0.00 | 0.00 | 28 | 1015.5 |
| 20260501210038 | 66 | 298 | 6.0 | 0.0 | 0.00 | 0.00 | 0.00 | 29 | 1015.8 |
| 20260501204527 | 66 | 257 | 6.0 | 0.0 | 0.00 | 0.00 | 0.00 | 29 | 1015.8 |
| 20260501203025 | 66 | 252 | 7.0 | 0.0 | 0.00 | 0.00 | 0.00 | 29 | 1015.9 |
| 20260501201528 | 65 | 315 | 6.0 | 0.0 | 0.00 | 0.00 | 0.00 | 30 | 1016.0 |
| 20260501200021 | 65 | 333 | 8.0 | 0.0 | 0.00 | 0.00 | 0.00 | 29 | 1016.2 |
| 20260501194524 | 65 | 309 | 7.0 | 0.0 | 0.00 | 0.00 | 0.00 | 30 | 1016.2 |
| 20260501193016 | 64 | 232 | 5.0 | 0.0 | 0.00 | 0.00 | 0.00 | 30 | 1016.3 |
| 20260501191514 | 63 | 263 | 6.0 | 0.0 | 0.00 | 0.00 | 0.00 | 31 | 1016.4 |
| 20260501190012 | 63 | 270 | 6.0 | 0.0 | 0.00 | 0.00 | 0.00 | 31 | 1016.6 |
| 20260501184509 | 63 | 297 | 7.0 | 0.0 | 0.00 | 0.00 | 0.00 | 31 | 1016.8 |
| 20260501183005 | 62 | 294 | 7.0 | 0.0 | 0.00 | 0.00 | 0.00 | 31 | 1017.0 |
| 20260501181501 | 61 | 240 | 6.0 | 0.0 | 0.00 | 0.00 | 0.00 | 34 | 1017.2 |
| 20260501180114 | 61 | 270 | 6.0 | 0.0 | 0.00 | 0.00 | 0.00 | 33 | 1017.4 |
| 20260501174557 | 61 | 267 | 6.0 | 0.0 | 0.00 | 0.00 | 0.00 | 35 | 1017.5 |
| 20260501173054 | 59 | 252 | 6.0 | 0.0 | 0.00 | 0.00 | 0.00 | 35 | 1017.7 |
| 20260501171551 | 59 | 246 | 6.0 | 0.0 | 0.00 | 0.00 | 0.00 | 37 | 1017.9 |